GW0371 Weather Reports


Display with metric or nautical units.
time (UTC)temp
F
wind
direction
speed
MPH
gust
MPH
rain 1hr
in
rain 24hr
in
rain mn
in
humidity
%
barometer
mb
20220525183104 69 289 5.0 14.0 0.00 0.99 0.20 61 1011.1
20220525182604 69 286 6.0 15.0 0.00 0.99 0.20 63 1011.1
20220525182104 69 291 4.0 10.0 0.00 1.00 0.20 65 1011.1
20220525181604 68 287 4.0 12.0 0.00 1.00 0.20 63 1011.1
20220525181104 68 301 3.0 12.0 0.00 1.00 0.20 65 1011.1
20220525180604 68 312 6.0 14.0 0.00 1.00 0.20 63 1011.0
20220525180104 68 297 4.0 10.0 0.00 1.00 0.20 65 1011.0
20220525175604 69 268 5.0 13.0 0.00 1.00 0.20 62 1010.9
20220525175104 69 280 6.0 12.0 0.00 1.00 0.20 62 1010.9
20220525174604 69 272 6.0 16.0 0.00 1.00 0.20 62 1010.9
20220525174104 69 313 7.0 12.0 0.00 1.00 0.20 64 1010.8
20220525173604 69 304 6.0 13.0 0.00 1.00 0.20 66 1010.9
20220525173104 69 261 5.0 12.0 0.00 1.00 0.20 63 1010.9
20220525172604 69 266 6.0 12.0 0.00 1.00 0.20 63 1010.8
20220525172104 69 297 7.0 14.0 0.00 1.00 0.20 64 1010.8
20220525171604 69 292 4.0 13.0 0.00 1.00 0.20 67 1010.9
20220525171105 68 292 5.0 13.0 0.00 1.00 0.20 66 1010.9
20220525170604 68 294 6.0 12.0 0.00 1.00 0.20 68 1010.9
20220525170104 67 293 3.0 10.0 0.00 1.00 0.20 70 1010.8
20220525165604 66 311 5.0 9.0 0.00 1.00 0.20 74 1011.0
20220525165104 66 290 4.0 12.0 0.00 1.00 0.20 73 1011.0
20220525164603 66 295 4.0 10.0 0.00 1.00 0.20 76 1010.9
20220525164104 65 305 4.0 12.0 0.00 1.00 0.20 79 1010.9
20220525163604 64 299 5.0 12.0 0.00 1.00 0.20 78 1010.9
20220525163104 64 299 5.0 12.0 0.00 1.00 0.20 77 1010.9
20220525162604 65 311 5.0 12.0 0.00 1.00 0.20 77 1010.9
20220525162104 65 300 3.0 7.0 0.00 1.00 0.20 78 1010.8
20220525161604 65 295 3.0 12.0 0.00 1.00 0.20 78 1010.8
20220525161104 65 252 4.0 12.0 0.00 1.00 0.20 79 1010.6
20220525160604 64 298 7.0 13.0 0.00 1.00 0.20 80 1010.4
20220525160104 64 274 6.0 14.0 0.00 1.00 0.20 80 1010.4
20220525155604 63 299 6.0 14.0 0.00 1.00 0.20 82 1010.3
20220525155103 62 250 5.0 12.0 0.00 1.00 0.20 83 1010.3
20220525154604 62 284 5.0 10.0 0.00 1.00 0.20 82 1010.6
20220525154104 62 310 6.0 12.0 0.00 1.00 0.20 83 1010.7
20220525153604 62 304 6.0 13.0 0.00 1.00 0.20 83 1010.7
20220525153104 62 314 5.0 13.0 0.00 1.00 0.20 83 1010.8
20220525152604 62 301 5.0 13.0 0.00 1.00 0.20 83 1010.5
20220525152104 63 298 5.0 10.0 0.00 1.00 0.20 85 1010.4
20220525151604 63 296 3.0 9.0 0.00 1.00 0.20 86 1010.3
20220525151103 62 285 3.0 12.0 0.00 1.00 0.20 86 1010.1
20220525150604 62 293 5.0 12.0 0.00 1.00 0.20 85 1010.2
20220525150104 62 269 2.0 8.0 0.00 1.00 0.20 85 1010.3
20220525145603 62 289 5.0 8.0 0.00 1.00 0.20 85 1010.4
20220525145104 62 291 3.0 10.0 0.00 1.00 0.20 87 1010.1
20220525144604 62 310 2.0 8.0 0.00 1.00 0.20 88 1010.1
20220525144103 62 280 2.0 7.0 0.00 1.00 0.20 88 1010.0
20220525143604 62 297 2.0 5.0 0.00 1.00 0.20 88 1009.9
20220525143104 62 320 5.0 13.0 0.00 1.00 0.20 87 1009.9
20220525142604 62 291 5.0 12.0 0.00 1.00 0.20 87 1009.9
20220525142104 62 285 3.0 8.0 0.00 1.00 0.20 89 1009.7
20220525141604 61 288 5.0 10.0 0.00 1.00 0.20 89 1009.8
20220525141104 61 286 3.0 8.0 0.00 1.00 0.20 89 1009.8
20220525140604 61 287 6.0 12.0 0.00 1.00 0.20 89 1009.7
20220525140104 61 297 3.0 10.0 0.00 1.00 0.20 90 1009.7
20220525135603 61 321 3.0 8.0 0.00 1.00 0.20 90 1009.6
20220525135104 61 297 3.0 9.0 0.00 1.00 0.20 91 1009.4
20220525134604 61 287 4.0 8.0 0.00 1.00 0.20 91 1009.4
20220525134104 61 254 4.0 9.0 0.00 1.00 0.20 91 1009.3
20220525133604 61 286 2.0 8.0 0.00 1.00 0.20 92 1009.3
20220525133104 61 288 5.0 10.0 0.00 1.00 0.20 92 1009.1
20220525132604 61 293 4.0 9.0 0.00 1.00 0.20 92 1008.8
20220525132104 61 310 3.0 9.0 0.00 1.00 0.20 92 1008.8
20220525131604 61 272 3.0 8.0 0.00 1.00 0.20 92 1008.7
20220525131104 61 306 3.0 8.0 0.00 1.00 0.20 93 1008.6
20220525130604 61 281 4.0 12.0 0.00 1.00 0.20 92 1008.4
20220525130104 61 293 2.0 9.0 0.00 1.00 0.20 93 1008.4
20220525125604 61 355 2.0 8.0 0.00 1.00 0.20 92 1008.5
20220525125104 61 240 2.0 6.0 0.00 1.00 0.20 93 1008.5
20220525124604 61 216 3.0 8.0 0.00 1.00 0.20 93 1008.3
20220525124104 62 285 3.0 8.0 0.00 1.00 0.20 93 1008.2
20220525123604 62 266 3.0 8.0 0.00 1.00 0.20 93 1008.2
20220525123104 62 261 4.0 10.0 0.00 1.00 0.20 93 1007.9
20220525122604 62 144 5.0 10.0 0.00 1.00 0.20 94 1007.9
20220525122104 62 295 3.0 6.0 0.00 1.00 0.20 95 1007.8
20220525121604 62 296 2.0 6.0 0.00 1.00 0.20 96 1007.9
20220525121104 62 183 2.0 6.0 0.00 1.00 0.20 96 1007.8
20220525120604 62 267 1.0 3.0 0.00 1.00 0.20 96 1007.8
20220525120104 62 215 2.0 3.0 0.00 1.00 0.20 96 1007.8
20220525115604 62 237 1.0 3.0 0.00 1.00 0.20 96 1007.7
20220525115104 62 234 1.0 3.0 0.00 1.00 0.20 96 1007.7
20220525114604 62 228 2.0 3.0 0.00 1.00 0.20 96 1007.7
20220525114104 62 229 1.0 3.0 0.00 1.00 0.20 96 1007.6
20220525113604 62 230 1.0 3.0 0.00 1.00 0.20 96 1007.3
20220525113103 62 232 0.0 2.0 0.00 1.00 0.20 97 1007.1
20220525112604 62 233 1.0 2.0 0.00 1.00 0.20 97 1007.0
20220525112104 62 232 1.0 3.0 0.00 1.00 0.20 96 1007.0
20220525111604 62 196 1.0 3.0 0.00 1.00 0.20 96 1006.9
20220525111104 62 213 2.0 3.0 0.00 1.00 0.20 96 1006.9
20220525110604 62 252 1.0 2.0 0.00 1.00 0.20 96 1006.9
20220525110104 62 258 1.0 3.0 0.00 1.00 0.20 96 1006.8
20220525105604 62 159 1.0 3.0 0.00 1.00 0.20 96 1006.7
20220525105104 62 194 1.0 3.0 0.00 1.00 0.20 96 1006.5
20220525104603 62 192 0.0 3.0 0.00 1.00 0.20 96 1006.4
20220525104104 61 254 1.0 3.0 0.00 1.00 0.20 96 1006.2
20220525103604 61 260 1.0 3.0 0.00 1.00 0.20 96 1006.3
20220525103104 61 284 1.0 3.0 0.00 1.01 0.20 96 1006.0
20220525102604 61 282 1.0 3.0 0.00 1.01 0.20 96 1006.0
20220525102104 61 281 1.0 3.0 0.00 1.01 0.20 96 1006.0
20220525101604 61 271 1.0 3.0 0.00 1.01 0.20 96 1005.9
20220525101103 61 288 1.0 3.0 0.00 1.01 0.20 97 1006.0
20220525100604 61 280 1.0 3.0 0.00 1.01 0.20 97 1006.1
20220525100104 61 263 1.0 3.0 0.00 1.01 0.20 97 1005.9
20220525095604 61 251 0.0 2.0 0.00 1.01 0.20 97 1005.6
20220525095104 61 251 0.0 2.0 0.00 1.01 0.20 97 1005.6
20220525094604 61 251 0.0 1.0 0.00 1.01 0.20 97 1005.6
20220525094105 61 251 0.0 2.0 0.00 1.01 0.20 96 1005.5
20220525093604 61 251 1.0 2.0 0.00 1.01 0.20 96 1005.4
20220525093104 61 251 0.0 2.0 0.00 1.01 0.20 96 1005.6
20220525092604 61 260 0.0 3.0 0.00 1.01 0.20 96 1005.7
20220525092104 61 280 3.0 6.0 0.00 1.01 0.20 96 1005.8
20220525091604 61 273 2.0 3.0 0.00 1.01 0.20 96 1005.8
20220525091104 61 289 3.0 5.0 0.00 1.01 0.20 96 1005.8
20220525090604 61 313 2.0 3.0 0.00 1.01 0.20 96 1005.7
20220525090104 61 301 2.0 5.0 0.00 1.01 0.20 96 1005.8
20220525085604 61 302 3.0 7.0 0.01 1.01 0.20 96 1005.9
20220525085104 61 310 2.0 5.0 0.01 1.01 0.20 96 1006.0
20220525084603 61 275 2.0 7.0 0.01 1.01 0.20 96 1006.2
20220525084104 61 305 3.0 7.0 0.01 1.01 0.20 97 1006.5
20220525083604 61 294 3.0 8.0 0.01 1.01 0.20 97 1006.2
20220525083103 61 267 3.0 12.0 0.01 1.01 0.20 97 1006.8
20220525082604 61 304 2.0 6.0 0.01 1.01 0.20 97 1006.7
20220525082104 61 210 4.0 9.0 0.01 1.01 0.20 97 1007.1
20220525081604 61 300 2.0 7.0 0.01 1.01 0.20 97 1005.1
20220525081104 61 265 3.0 12.0 0.01 1.01 0.20 97 1006.2
20220525080604 61 302 3.0 7.0 0.01 1.01 0.20 97 1006.4
20220525080104 61 249 3.0 7.0 0.01 1.01 0.20 97 1004.0
20220525075603 61 87 2.0 6.0 0.00 1.00 0.19 97 1003.4
20220525075104 61 42 2.0 3.0 0.00 1.00 0.19 97 1005.3
20220525074604 61 243 2.0 5.0 0.00 1.00 0.19 97 1006.2
20220525074103 62 20 1.0 5.0 0.00 1.00 0.19 97 1006.5
20220525073604 62 243 2.0 5.0 0.00 1.00 0.19 97 1006.9
20220525073104 62 30 2.0 3.0 0.00 1.00 0.19 97 1006.5
20220525072604 62 231 1.0 3.0 0.00 1.00 0.19 97 1005.9
20220525072104 62 51 0.0 3.0 0.00 1.00 0.19 97 1005.9
20220525071604 62 224 0.0 2.0 0.00 1.00 0.19 97 1005.3
20220525071104 62 216 2.0 3.0 0.00 1.00 0.19 97 1006.0
20220525070603 62 83 0.0 0.0 0.00 1.00 0.19 97 1005.3
20220525070104 62 83 0.0 1.0 0.00 1.00 0.19 97 1005.5
20220525065604 62 83 0.0 1.0 0.01 1.00 0.19 97 1005.7
20220525065103 62 83 0.0 2.0 0.02 1.00 0.19 97 1005.8
20220525064604 62 81 1.0 2.0 0.04 1.00 0.19 97 1005.7
20220525064104 62 72 0.0 3.0 0.06 1.00 0.19 97 1005.2
20220525063604 62 10 0.0 1.0 0.08 1.00 0.19 97 1005.1
20220525063103 62 10 1.0 3.0 0.10 1.00 0.19 97 1005.3
20220525062604 61 92 1.0 3.0 0.12 1.01 0.19 97 1005.1
20220525062104 61 38 2.0 5.0 0.14 1.01 0.19 97 1004.5
20220525061603 61 26 3.0 6.0 0.15 1.01 0.19 97 1004.3
20220525061104 61 37 2.0 3.0 0.16 1.01 0.19 97 1005.2
20220525060603 61 31 2.0 5.0 0.17 1.01 0.19 96 1005.7
20220525060103 62 28 1.0 3.0 0.19 1.01 0.19 96 1006.5
20220525055604 62 273 0.0 1.0 0.18 1.00 0.18 97 1007.1
20220525055104 62 273 1.0 2.0 0.18 0.99 0.17 96 1007.7
20220525054604 62 244 1.0 3.0 0.16 0.97 0.15 96 1008.1
20220525054103 62 236 1.0 3.0 0.14 0.95 0.13 96 1008.4
20220525053604 62 243 2.0 3.0 0.12 0.93 0.11 96 1008.7
20220525053104 62 226 2.0 7.0 0.11 0.91 0.09 96 1008.9
20220525052603 62 232 1.0 3.0 0.10 0.89 0.07 96 1009.3
20220525052104 62 199 2.0 3.0 0.08 0.87 0.05 96 1009.3
20220525051604 62 210 2.0 5.0 0.07 0.86 0.04 96 1009.2
20220525051104 62 36 1.0 2.0 0.06 0.85 0.03 96 1009.0
20220525050604 62 36 1.0 3.0 0.05 0.84 0.02 96 1008.8
20220525050103 62 36 2.0 3.0 0.04 0.82 0.00 96 1008.8
20220525045603 62 36 1.0 3.0 0.05 0.82 0.82 97 1008.6
20220525045104 62 36 0.0 1.0 0.06 0.81 0.81 97 1008.5
20220525044604 62 36 0.0 1.0 0.09 0.81 0.81 96 1008.4
20220525044103 62 36 1.0 2.0 0.11 0.81 0.81 96 1008.6
20220525043604 62 36 0.0 1.0 0.13 0.81 0.81 96 1008.9
20220525043104 62 36 0.0 1.0 0.15 0.80 0.80 96 1008.7
20220525042603 62 36 0.0 2.0 0.16 0.79 0.79 96 1008.6
20220525042104 62 36 1.0 2.0 0.18 0.79 0.79 96 1008.7
20220525041604 62 36 1.0 3.0 0.20 0.79 0.79 96 1008.2
20220525041104 62 36 0.0 3.0 0.21 0.79 0.79 96 1007.6
20220525040603 63 36 1.0 3.0 0.22 0.79 0.79 96 1007.5
20220525040104 63 36 1.0 2.0 0.22 0.78 0.78 97 1007.6
20220525035604 62 36 1.0 2.0 0.21 0.77 0.77 96 1007.5
20220525035103 62 36 1.0 3.0 0.20 0.75 0.75 96 1008.0
20220525034604 62 107 1.0 2.0 0.17 0.72 0.72 96 1008.1
20220525034104 62 107 0.0 1.0 0.16 0.70 0.70 96 1008.2
20220525033604 62 107 0.0 2.0 0.14 0.68 0.68 96 1008.2
20220525033104 62 77 2.0 3.0 0.11 0.65 0.65 96 1008.1
20220525032604 62 43 0.0 2.0 0.09 0.63 0.63 96 1008.5
20220525032104 62 43 0.0 2.0 0.08 0.61 0.61 96 1008.6
20220525031603 62 43 0.0 1.0 0.06 0.59 0.59 96 1008.5
20220525031104 62 43 0.0 1.0 0.05 0.58 0.58 96 1008.3
20220525030604 61 43 1.0 3.0 0.05 0.57 0.57 96 1008.1
20220525030104 61 43 0.0 1.0 0.05 0.56 0.56 96 1008.5
20220525025603 61 43 0.0 2.0 0.07 0.56 0.56 96 1008.6
20220525025104 61 43 0.0 1.0 0.10 0.55 0.55 96 1008.6
20220525024604 61 43 0.0 2.0 0.13 0.56 0.55 95 1008.7
20220525024103 61 43 0.0 2.0 0.32 0.55 0.54 95 1008.9
20220525023603 61 43 0.0 2.0 0.36 0.55 0.54 95 1008.5
20220525023104 61 43 0.0 1.0 0.36 0.55 0.54 95 1008.7
20220525022603 61 43 1.0 1.0 0.36 0.56 0.54 95 1008.7
20220525022104 61 43 0.0 0.0 0.35 0.55 0.53 94 1008.6
20220525021604 61 43 0.0 0.0 0.35 0.56 0.53 94 1008.4
20220525021103 61 43 0.0 1.0 0.35 0.56 0.53 93 1008.9
20220525020603 61 43 0.0 1.0 0.34 0.55 0.52 93 1009.1
20220525020104 61 43 1.0 3.0 0.33 0.54 0.51 91 1009.5
20220525015604 61 351 2.0 9.0 0.31 0.53 0.49 90 1009.2
20220525015103 62 305 5.0 13.0 0.27 0.49 0.45 88 1009.1
20220525014604 63 307 10.0 20.0 0.24 0.46 0.42 89 1009.7
20220525014103 65 305 9.0 14.0 0.04 0.26 0.22 93 1010.1
20220525013604 65 302 3.0 10.0 0.00 0.22 0.18 94 1008.6
20220525013104 64 122 2.0 8.0 0.01 0.22 0.18 93 1007.3
20220525012603 64 38 2.0 5.0 0.01 0.22 0.18 93 1006.8
20220525012104 64 46 2.0 3.0 0.01 0.22 0.18 94 1006.9
20220525011604 64 348 1.0 2.0 0.02 0.22 0.18 93 1007.0
20220525011104 64 348 0.0 3.0 0.03 0.22 0.18 93 1006.8
20220525010604 64 65 1.0 3.0 0.04 0.22 0.18 92 1006.2
20220525010104 64 30 1.0 5.0 0.05 0.22 0.18 92 1006.0
20220525005603 64 356 2.0 6.0 0.08 0.22 0.18 92 1005.8
20220525005104 64 313 2.0 5.0 0.14 0.22 0.18 92 1005.7
20220525004604 64 51 2.0 6.0 0.14 0.22 0.18 92 1005.7
20220525004104 64 353 1.0 9.0 0.14 0.22 0.18 92 1005.7
20220525003603 64 36 4.0 12.0 0.14 0.22 0.18 91 1005.6
20220525003104 64 38 3.0 8.0 0.13 0.21 0.17 91 1005.7
20220525002603 65 16 2.0 5.0 0.13 0.21 0.17 91 1005.8
20220525002104 65 298 3.0 8.0 0.13 0.21 0.17 90 1006.0
20220525001604 65 19 2.0 8.0 0.12 0.20 0.16 90 1005.8
20220525001103 66 81 2.0 9.0 0.11 0.19 0.15 89 1005.8
20220525000604 67 300 3.0 10.0 0.10 0.18 0.14 87 1005.6
20220525000103 68 258 4.0 10.0 0.09 0.17 0.13 84 1005.4
20220524235603 70 302 6.0 13.0 0.06 0.14 0.10 81 1005.4
20220524235104 72 333 4.0 12.0 0.00 0.08 0.04 78 1005.5
20220524234603 72 306 5.0 10.0 0.00 0.08 0.04 76 1005.2
20220524234104 73 299 7.0 18.0 0.00 0.08 0.04 74 1005.4
20220524233604 74 305 5.0 14.0 0.00 0.08 0.04 74 1005.4
20220524233103 75 305 4.0 8.0 0.00 0.08 0.04 73 1005.0
20220524232604 75 336 2.0 5.0 0.00 0.08 0.04 73 1005.0
20220524232104 75 355 1.0 3.0 0.00 0.08 0.04 72 1005.0
20220524231603 75 29 2.0 3.0 0.00 0.08 0.04 72 1004.9
20220524231104 75 55 1.0 6.0 0.00 0.08 0.04 72 1004.8
20220524230604 75 62 2.0 3.0 0.00 0.08 0.04 72 1004.7
20220524230104 76 32 1.0 3.0 0.00 0.08 0.04 71 1004.7
20220524225604 76 52 1.0 6.0 0.00 0.08 0.04 71 1004.7
20220524225104 76 14 3.0 7.0 0.00 0.08 0.04 70 1004.7
20220524224604 76 40 3.0 6.0 0.00 0.08 0.04 70 1004.5
20220524224103 76 57 2.0 5.0 0.00 0.08 0.04 70 1004.5
20220524223604 77 54 2.0 6.0 0.00 0.08 0.04 71 1004.4
20220524223103 77 49 2.0 6.0 0.00 0.08 0.04 71 1004.3
20220524222604 77 29 3.0 9.0 0.00 0.08 0.04 69 1004.4
20220524222103 77 64 3.0 8.0 0.00 0.08 0.04 69 1004.2
20220524221604 77 46 3.0 7.0 0.00 0.08 0.04 69 1004.1
20220524221103 77 83 3.0 9.0 0.00 0.08 0.04 71 1004.5
20220524220604 76 41 3.0 8.0 0.00 0.08 0.04 72 1004.7
20220524220104 75 3 3.0 5.0 0.00 0.08 0.04 74 1004.9
20220524215603 75 50 2.0 8.0 0.00 0.08 0.04 73 1005.1
20220524215104 75 14 2.0 7.0 0.00 0.08 0.04 73 1005.4
20220524214604 75 86 3.0 7.0 0.00 0.08 0.04 73 1005.4
20220524214104 75 347 1.0 8.0 0.00 0.08 0.04 73 1005.7
20220524213604 75 22 2.0 5.0 0.00 0.08 0.04 73 1005.9
20220524213103 75 34 2.0 3.0 0.00 0.08 0.04 74 1005.9
20220524212603 75 320 2.0 3.0 0.00 0.08 0.04 75 1006.0
20220524212104 74 30 2.0 6.0 0.00 0.08 0.04 75 1006.1
20220524211603 75 19 3.0 9.0 0.00 0.08 0.04 73 1006.2
20220524211104 75 43 3.0 8.0 0.00 0.08 0.04 72 1006.2
20220524210603 75 303 1.0 3.0 0.00 0.08 0.04 73 1006.2
20220524210103 75 22 2.0 3.0 0.00 0.08 0.04 72 1006.3
20220524205604 75 62 2.0 12.0 0.00 0.08 0.04 74 1006.3
20220524205104 74 41 4.0 8.0 0.00 0.08 0.04 75 1006.2
20220524204604 74 59 3.0 9.0 0.00 0.08 0.04 75 1006.4
20220524204103 73 56 3.0 7.0 0.00 0.08 0.04 77 1006.7
20220524203604 73 17 1.0 5.0 0.00 0.08 0.04 80 1006.7
20220524203103 73 22 2.0 3.0 0.00 0.08 0.04 79 1007.0
20220524202604 73 33 2.0 7.0 0.00 0.08 0.04 79 1006.9
20220524202104 73 76 3.0 7.0 0.00 0.08 0.04 78 1007.0
20220524201603 73 0 2.0 5.0 0.00 0.08 0.04 79 1007.0
20220524201104 73 29 1.0 6.0 0.00 0.08 0.04 80 1007.1
20220524200603 72 8 1.0 5.0 0.00 0.08 0.04 81 1007.2
20220524200104 72 66 2.0 6.0 0.00 0.08 0.04 81 1007.3
20220524195604 72 55 1.0 5.0 0.00 0.08 0.04 81 1007.4
20220524195103 72 55 3.0 12.0 0.00 0.08 0.04 81 1007.5
20220524194604 72 19 2.0 7.0 0.00 0.08 0.04 83 1007.6
20220524194103 71 80 2.0 7.0 0.00 0.08 0.04 86 1007.5
20220524193604 71 319 1.0 6.0 0.00 0.08 0.04 85 1007.6
20220524193103 70 339 2.0 8.0 0.01 0.08 0.04 84 1007.6
20220524192604 71 343 2.0 3.0 0.01 0.08 0.04 84 1007.8
20220524192104 71 50 3.0 7.0 0.02 0.08 0.04 84 1008.0
20220524191603 71 40 2.0 6.0 0.02 0.08 0.04 85 1008.0
20220524191104 71 16 2.0 8.0 0.02 0.08 0.04 86 1008.0
20220524190604 71 36 4.0 9.0 0.02 0.08 0.04 86 1008.0
20220524190103 71 30 4.0 10.0 0.02 0.08 0.04 87 1008.1
20220524185603 70 35 1.0 5.0 0.02 0.08 0.04 92 1008.2
20220524185104 69 21 2.0 8.0 0.02 0.08 0.04 92 1008.3
20220524184603 68 96 2.0 5.0 0.02 0.08 0.04 91 1008.4
20220524184103 68 45 3.0 6.0 0.02 0.08 0.04 89 1008.5
20220524183604 68 271 1.0 5.0 0.02 0.08 0.04 89 1008.6